PWSweather.com
Personal Weather Stations
Station Observations
BRISTOL
HorfieldFilton, BristolGB BS7

HorfieldFiltonBristolGB BS7

Lat: 51.5, Lon: -2.576

Elevation: 272

Station Type: Davis VP2

http://www.martynhicks.co.uk/weather/data.php

Latest ConditionsUpdated 3:00:01 PM GMT Monday, Aug 3, 2015
Currently Today's Max Today's Min Today's Average
Temperature 67.4°F19.7°C 69.0°F20.6°C 63.0°F17.2°C 65.3°F18.5°C
Dew Point 53.9°F12.2°C 60.3°F15.7°C 51.7°F10.9°C 57.3°F14.1°C
Winds 3.5 mph WSW5.6 kmh WSW 6.9 mph SSW11.1 kmh SSW - 3.6 mph 5.8 kmh
Wind Gusts 5.8 mph9.3 kmh 13.8 mph22.2 kmh - -
Humidity 62% 89% 60% 76%
Pressure 29.82 in1009.8 mb 29.84 in1010.5 mb 29.75 in1007.5 mb -
Hour Temp Dew Point Humidity Winds Wind Gusts Pressure Precip Precip Rate Daily Precip Total
03:00 PM 67.4°F19.7°C 53.9°F12.2°C 62% 3.5 mph WSW5.6 kmh WSW 5.8 mph9.3 kmh 29.82 in1009.8 mb - 0.00 in0.0 mm 0.00 in0.0 mm
02:50 PM 67.9°F19.9°C 53.9°F12.2°C 61% 2.3 mph W3.7 kmh W 9.2 mph14.8 kmh 29.82 in1009.8 mb - 0.00 in0.0 mm 0.00 in0.0 mm
02:40 PM 66.9°F19.4°C 53.9°F12.2°C 63% 1.2 mph W1.9 kmh W 5.8 mph9.3 kmh 29.82 in1009.8 mb - 0.00 in0.0 mm 0.00 in0.0 mm
02:30 PM 66.8°F19.3°C 53.3°F11.8°C 62% 1.2 mph W1.9 kmh W 3.5 mph5.6 kmh 29.82 in1009.8 mb - 0.00 in0.0 mm 0.00 in0.0 mm
02:20 PM 67.8°F19.9°C 53.4°F11.9°C 60% 3.5 mph WNW5.6 kmh WNW 9.2 mph14.8 kmh 29.82 in1009.8 mb - 0.00 in0.0 mm 0.00 in0.0 mm
02:10 PM 66.8°F19.3°C 53.8°F12.1°C 63% 2.3 mph W3.7 kmh W 2.3 mph3.7 kmh 29.82 in1009.8 mb - 0.00 in0.0 mm 0.00 in0.0 mm
02:00 PM 66.3°F19.1°C 53.3°F11.8°C 63% 3.5 mph W5.6 kmh W 5.8 mph9.3 kmh 29.82 in1009.8 mb - 0.00 in0.0 mm 0.00 in0.0 mm
01:50 PM 66.5°F19.2°C 54.0°F12.2°C 64% 2.3 mph W3.7 kmh W 3.5 mph5.6 kmh 29.83 in1010.2 mb - 0.00 in0.0 mm 0.00 in0.0 mm
01:40 PM 66.5°F19.2°C 53.9°F12.2°C 64% 5.8 mph W9.3 kmh W 9.2 mph14.8 kmh 29.83 in1010.2 mb - 0.00 in0.0 mm 0.00 in0.0 mm
01:30 PM 66.1°F18.9°C 54.0°F12.2°C 65% 3.5 mph W5.6 kmh W 6.9 mph11.1 kmh 29.83 in1010.2 mb - 0.00 in0.0 mm 0.00 in0.0 mm
01:20 PM 65.9°F18.8°C 54.6°F12.6°C 67% 4.6 mph WSW7.4 kmh WSW 11.5 mph18.5 kmh 29.84 in1010.5 mb - 0.00 in0.0 mm 0.00 in0.0 mm
01:10 PM 66.5°F19.2°C 55.7°F13.2°C 68% 3.5 mph W5.6 kmh W 6.9 mph11.1 kmh 29.83 in1010.2 mb - 0.00 in0.0 mm 0.00 in0.0 mm
01:00 PM 66.8°F19.3°C 55.5°F13.1°C 67% 2.3 mph WNW3.7 kmh WNW 11.5 mph18.5 kmh 29.84 in1010.5 mb - 0.00 in0.0 mm 0.00 in0.0 mm
12:50 PM 67.6°F19.8°C 55.4°F13.0°C 65% 3.5 mph WSW5.6 kmh WSW 4.6 mph7.4 kmh 29.84 in1010.5 mb - 0.00 in0.0 mm 0.00 in0.0 mm
12:40 PM 69.0°F20.6°C 55.4°F13.0°C 62% 4.6 mph W7.4 kmh W 11.5 mph18.5 kmh 29.83 in1010.2 mb - 0.00 in0.0 mm 0.00 in0.0 mm
12:30 PM 67.7°F19.8°C 55.5°F13.1°C 65% 6.9 mph W11.1 kmh W 13.8 mph22.2 kmh 29.83 in1010.2 mb - 0.00 in0.0 mm 0.00 in0.0 mm
12:20 PM 66.7°F19.3°C 55.4°F13.0°C 67% 4.6 mph W7.4 kmh W 11.5 mph18.5 kmh 29.84 in1010.5 mb - 0.00 in0.0 mm 0.00 in0.0 mm
12:10 PM 66.7°F19.3°C 56.2°F13.4°C 69% 5.8 mph W9.3 kmh W 10.4 mph16.7 kmh 29.84 in1010.5 mb - 0.00 in0.0 mm 0.00 in0.0 mm
12:00 PM 67.4°F19.7°C 56.0°F13.3°C 67% 6.9 mph W11.1 kmh W 11.5 mph18.5 kmh 29.83 in1010.2 mb - 0.00 in0.0 mm 0.00 in0.0 mm
11:50 AM 68.1°F20.1°C 55.9°F13.3°C 65% 2.3 mph SW3.7 kmh SW 4.6 mph7.4 kmh 29.83 in1010.2 mb - 0.00 in0.0 mm 0.00 in0.0 mm
11:40 AM 67.4°F19.7°C 56.1°F13.4°C 67% 5.8 mph WSW9.3 kmh WSW 11.5 mph18.5 kmh 29.84 in1010.5 mb - 0.00 in0.0 mm 0.00 in0.0 mm
11:30 AM 67.7°F19.8°C 57.2°F14.0°C 69% 5.8 mph W9.3 kmh W 9.2 mph14.8 kmh 29.83 in1010.2 mb - 0.00 in0.0 mm 0.00 in0.0 mm
11:20 AM 67.8°F19.9°C 58.5°F14.7°C 72% 5.8 mph W9.3 kmh W 12.7 mph20.4 kmh 29.83 in1010.2 mb - 0.00 in0.0 mm 0.00 in0.0 mm
11:10 AM 68.7°F20.4°C 56.9°F13.8°C 66% 4.6 mph WSW7.4 kmh WSW 11.5 mph18.5 kmh 29.83 in1010.2 mb - 0.00 in0.0 mm 0.00 in0.0 mm
11:00 AM 67.1°F19.5°C 56.6°F13.7°C 69% 4.6 mph WSW7.4 kmh WSW 9.2 mph14.8 kmh 29.83 in1010.2 mb - 0.00 in0.0 mm 0.00 in0.0 mm
10:50 AM 67.1°F19.5°C 58.5°F14.7°C 74% 3.5 mph WSW5.6 kmh WSW 8.1 mph13.0 kmh 29.83 in1010.2 mb - 0.00 in0.0 mm 0.00 in0.0 mm
10:40 AM 66.7°F19.3°C 58.5°F14.7°C 75% 5.8 mph SSW9.3 kmh SSW 11.5 mph18.5 kmh 29.83 in1010.2 mb - 0.00 in0.0 mm 0.00 in0.0 mm
10:30 AM 66.8°F19.3°C 60.1°F15.6°C 79% 5.8 mph W9.3 kmh W 10.4 mph16.7 kmh 29.83 in1010.2 mb - 0.00 in0.0 mm 0.00 in0.0 mm
10:20 AM 65.8°F18.8°C 59.8°F15.4°C 81% 1.2 mph W1.9 kmh W 5.8 mph9.3 kmh 29.83 in1010.2 mb - 0.00 in0.0 mm 0.00 in0.0 mm
10:10 AM 64.4°F18.0°C 59.4°F15.2°C 84% 3.5 mph W5.6 kmh W 8.1 mph13.0 kmh 29.83 in1010.2 mb - 0.00 in0.0 mm 0.00 in0.0 mm
10:00 AM 63.5°F17.5°C 59.2°F15.1°C 86% 1.2 mph W1.9 kmh W 3.5 mph5.6 kmh 29.83 in1010.2 mb - 0.00 in0.0 mm 0.00 in0.0 mm
09:50 AM 63.0°F17.2°C 58.7°F14.8°C 86% 3.5 mph W5.6 kmh W 5.8 mph9.3 kmh 29.83 in1010.2 mb - 0.00 in0.0 mm 0.00 in0.0 mm
09:40 AM 63.1°F17.3°C 58.8°F14.9°C 86% 3.5 mph WSW5.6 kmh WSW 6.9 mph11.1 kmh 29.83 in1010.2 mb - 0.00 in0.0 mm 0.00 in0.0 mm
09:30 AM 63.9°F17.7°C 58.3°F14.6°C 82% 4.6 mph W7.4 kmh W 8.1 mph13.0 kmh 29.83 in1010.2 mb - 0.00 in0.0 mm 0.00 in0.0 mm
09:20 AM 66.2°F19.0°C 58.7°F14.8°C 77% 1.2 mph WSW1.9 kmh WSW 6.9 mph11.1 kmh 29.82 in1009.8 mb - 0.00 in0.0 mm 0.00 in0.0 mm
09:10 AM 67.2°F19.6°C 59.4°F15.2°C 76% 2.3 mph WSW3.7 kmh WSW 8.1 mph13.0 kmh 29.81 in1009.5 mb - 0.00 in0.0 mm 0.00 in0.0 mm
09:00 AM 66.5°F19.2°C 59.1°F15.1°C 77% 2.3 mph SSW3.7 kmh SSW 8.1 mph13.0 kmh 29.81 in1009.5 mb - 0.00 in0.0 mm 0.00 in0.0 mm
08:50 AM 67.2°F19.6°C 59.0°F15.0°C 75% 3.5 mph SW5.6 kmh SW 4.6 mph7.4 kmh 29.80 in1009.1 mb - 0.00 in0.0 mm 0.00 in0.0 mm
08:40 AM 67.0°F19.4°C 59.2°F15.1°C 76% 3.5 mph SW5.6 kmh SW 5.8 mph9.3 kmh 29.80 in1009.1 mb - 0.00 in0.0 mm 0.00 in0.0 mm
08:30 AM 67.2°F19.6°C 59.0°F15.0°C 75% 5.8 mph SW9.3 kmh SW 9.2 mph14.8 kmh 29.80 in1009.1 mb - 0.00 in0.0 mm 0.00 in0.0 mm
08:20 AM 68.4°F20.2°C 60.2°F15.7°C 75% 3.5 mph SW5.6 kmh SW 6.9 mph11.1 kmh 29.80 in1009.1 mb - 0.00 in0.0 mm 0.00 in0.0 mm
08:10 AM 67.9°F19.9°C 60.1°F15.6°C 76% 1.2 mph SSW1.9 kmh SSW 4.6 mph7.4 kmh 29.80 in1009.1 mb - 0.00 in0.0 mm 0.00 in0.0 mm
08:00 AM 66.8°F19.3°C 59.4°F15.2°C 77% 5.8 mph SW9.3 kmh SW 8.1 mph13.0 kmh 29.80 in1009.1 mb - 0.00 in0.0 mm 0.00 in0.0 mm
07:50 AM 66.4°F19.1°C 59.7°F15.4°C 79% 4.6 mph SSW7.4 kmh SSW 9.2 mph14.8 kmh 29.79 in1008.8 mb - 0.00 in0.0 mm 0.00 in0.0 mm
07:40 AM 66.2°F19.0°C 59.5°F15.3°C 79% 5.8 mph SW9.3 kmh SW 8.1 mph13.0 kmh 29.79 in1008.8 mb - 0.00 in0.0 mm 0.00 in0.0 mm
07:30 AM 66.3°F19.1°C 59.9°F15.5°C 80% 5.8 mph SW9.3 kmh SW 10.4 mph16.7 kmh 29.79 in1008.8 mb - 0.00 in0.0 mm 0.00 in0.0 mm
07:20 AM 65.9°F18.8°C 60.2°F15.7°C 82% 5.8 mph WSW9.3 kmh WSW 9.2 mph14.8 kmh 29.79 in1008.8 mb - 0.00 in0.0 mm 0.00 in0.0 mm
07:10 AM 65.6°F18.7°C 60.3°F15.7°C 83% 5.8 mph SW9.3 kmh SW 9.2 mph14.8 kmh 29.79 in1008.8 mb - 0.00 in0.0 mm 0.00 in0.0 mm
07:00 AM 65.2°F18.4°C 60.2°F15.7°C 84% 5.8 mph SSW9.3 kmh SSW 10.4 mph16.7 kmh 29.79 in1008.8 mb - 0.00 in0.0 mm 0.00 in0.0 mm
06:50 AM 65.0°F18.3°C 60.1°F15.6°C 84% 4.6 mph SW7.4 kmh SW 10.4 mph16.7 kmh 29.79 in1008.8 mb - 0.00 in0.0 mm 0.00 in0.0 mm
06:40 AM 64.9°F18.3°C 60.3°F15.7°C 85% 3.5 mph S5.6 kmh S 10.4 mph16.7 kmh 29.79 in1008.8 mb - 0.00 in0.0 mm 0.00 in0.0 mm
06:30 AM 64.8°F18.2°C 60.2°F15.7°C 85% 2.3 mph SW3.7 kmh SW 10.4 mph16.7 kmh 29.78 in1008.5 mb - 0.00 in0.0 mm 0.00 in0.0 mm
06:20 AM 64.5°F18.1°C 60.2°F15.7°C 86% 3.5 mph S5.6 kmh S 5.8 mph9.3 kmh 29.78 in1008.5 mb - 0.00 in0.0 mm 0.00 in0.0 mm
06:10 AM 64.3°F17.9°C 60.0°F15.6°C 86% 6.9 mph SSW11.1 kmh SSW 13.8 mph22.2 kmh 29.77 in1008.1 mb - 0.00 in0.0 mm 0.00 in0.0 mm
06:00 AM 64.3°F17.9°C 60.3°F15.7°C 87% 5.8 mph S9.3 kmh S 9.2 mph14.8 kmh 29.77 in1008.1 mb - 0.00 in0.0 mm 0.00 in0.0 mm
05:50 AM 64.1°F17.8°C 60.2°F15.7°C 87% 2.3 mph S3.7 kmh S 3.5 mph5.6 kmh 29.77 in1008.1 mb - 0.00 in0.0 mm 0.00 in0.0 mm
05:40 AM 63.9°F17.7°C 60.0°F15.6°C 87% 5.8 mph SSW9.3 kmh SSW 9.2 mph14.8 kmh 29.77 in1008.1 mb - 0.00 in0.0 mm 0.00 in0.0 mm
05:30 AM 63.6°F17.6°C 60.0°F15.6°C 88% 4.6 mph SSW7.4 kmh SSW 10.4 mph16.7 kmh 29.77 in1008.1 mb - 0.00 in0.0 mm 0.00 in0.0 mm
05:20 AM 63.3°F17.4°C 59.7°F15.4°C 88% 2.3 mph SW3.7 kmh SW 5.8 mph9.3 kmh 29.77 in1008.1 mb - 0.00 in0.0 mm 0.00 in0.0 mm
05:10 AM 63.1°F17.3°C 59.8°F15.4°C 89% 5.8 mph S9.3 kmh S 6.9 mph11.1 kmh 29.76 in1007.8 mb - 0.00 in0.0 mm 0.00 in0.0 mm
05:00 AM 63.0°F17.2°C 59.4°F15.2°C 88% 2.3 mph SSW3.7 kmh SSW 4.6 mph7.4 kmh 29.76 in1007.8 mb - 0.00 in0.0 mm 0.00 in0.0 mm
04:50 AM 63.0°F17.2°C 59.4°F15.2°C 88% 3.5 mph SSW5.6 kmh SSW 6.9 mph11.1 kmh 29.76 in1007.8 mb - 0.00 in0.0 mm 0.00 in0.0 mm
04:40 AM 63.2°F17.3°C 59.3°F15.2°C 87% Calm Calm 2.3 mph3.7 kmh 29.75 in1007.5 mb - 0.00 in0.0 mm 0.00 in0.0 mm
04:30 AM 63.4°F17.4°C 59.5°F15.3°C 87% Calm Calm 1.2 mph1.9 kmh 29.75 in1007.5 mb - 0.00 in0.0 mm 0.00 in0.0 mm
04:20 AM 63.5°F17.5°C 59.2°F15.1°C 86% 2.3 mph S3.7 kmh S 3.5 mph5.6 kmh 29.75 in1007.5 mb - 0.00 in0.0 mm 0.00 in0.0 mm
04:10 AM 63.7°F17.6°C 59.4°F15.2°C 86% 2.3 mph SSW3.7 kmh SSW 8.1 mph13.0 kmh 29.75 in1007.5 mb - 0.00 in0.0 mm 0.00 in0.0 mm
04:00 AM 63.6°F17.6°C 59.0°F15.0°C 85% 2.3 mph SW3.7 kmh SW 8.1 mph13.0 kmh 29.76 in1007.8 mb - 0.00 in0.0 mm 0.00 in0.0 mm
03:50 AM 63.5°F17.5°C 58.9°F14.9°C 85% 5.8 mph SSW9.3 kmh SSW 6.9 mph11.1 kmh 29.76 in1007.8 mb - 0.00 in0.0 mm 0.00 in0.0 mm
03:40 AM 63.4°F17.4°C 58.8°F14.9°C 85% 4.6 mph SW7.4 kmh SW 5.8 mph9.3 kmh 29.76 in1007.8 mb - 0.00 in0.0 mm 0.00 in0.0 mm
03:30 AM 63.4°F17.4°C 58.8°F14.9°C 85% 4.6 mph SW7.4 kmh SW 8.1 mph13.0 kmh 29.76 in1007.8 mb - 0.00 in0.0 mm 0.00 in0.0 mm
03:20 AM 63.4°F17.4°C 58.5°F14.7°C 84% 4.6 mph SSW7.4 kmh SSW 10.4 mph16.7 kmh 29.76 in1007.8 mb - 0.00 in0.0 mm 0.00 in0.0 mm
03:10 AM 63.3°F17.4°C 58.7°F14.8°C 85% 4.6 mph SSW7.4 kmh SSW 6.9 mph11.1 kmh 29.76 in1007.8 mb - 0.00 in0.0 mm 0.00 in0.0 mm
03:00 AM 63.1°F17.3°C 58.5°F14.7°C 85% 3.5 mph SSW5.6 kmh SSW 6.9 mph11.1 kmh 29.76 in1007.8 mb - 0.00 in0.0 mm 0.00 in0.0 mm
02:50 AM 63.3°F17.4°C 58.4°F14.7°C 84% 3.5 mph SW5.6 kmh SW 5.8 mph9.3 kmh 29.76 in1007.8 mb - 0.00 in0.0 mm 0.00 in0.0 mm
02:40 AM 63.4°F17.4°C 58.2°F14.6°C 83% 2.3 mph SW3.7 kmh SW 5.8 mph9.3 kmh 29.76 in1007.8 mb - 0.00 in0.0 mm 0.00 in0.0 mm
02:30 AM 63.4°F17.4°C 57.8°F14.3°C 82% 4.6 mph WSW7.4 kmh WSW 3.5 mph5.6 kmh 29.76 in1007.8 mb - 0.00 in0.0 mm 0.00 in0.0 mm
02:20 AM 63.3°F17.4°C 57.0°F13.9°C 80% 4.6 mph SSW7.4 kmh SSW 6.9 mph11.1 kmh 29.76 in1007.8 mb - 0.00 in0.0 mm 0.00 in0.0 mm
02:10 AM 63.3°F17.4°C 56.3°F13.5°C 78% 2.3 mph SSW3.7 kmh SSW 4.6 mph7.4 kmh 29.76 in1007.8 mb - 0.00 in0.0 mm 0.00 in0.0 mm
02:00 AM 63.2°F17.3°C 55.9°F13.3°C 77% 4.6 mph SW7.4 kmh SW 6.9 mph11.1 kmh 29.76 in1007.8 mb - 0.00 in0.0 mm 0.00 in0.0 mm
01:50 AM 63.1°F17.3°C 55.0°F12.8°C 75% 1.2 mph SSW1.9 kmh SSW 4.6 mph7.4 kmh 29.76 in1007.8 mb - 0.00 in0.0 mm 0.00 in0.0 mm
01:40 AM 63.0°F17.2°C 54.6°F12.6°C 74% 1.2 mph SW1.9 kmh SW 3.5 mph5.6 kmh 29.77 in1008.1 mb - 0.00 in0.0 mm 0.00 in0.0 mm
01:30 AM 63.0°F17.2°C 54.2°F12.3°C 73% 1.2 mph SSW1.9 kmh SSW 5.8 mph9.3 kmh 29.76 in1007.8 mb - 0.00 in0.0 mm 0.00 in0.0 mm
01:20 AM 63.4°F17.4°C 53.9°F12.2°C 71% Calm Calm 1.2 mph1.9 kmh 29.76 in1007.8 mb - 0.00 in0.0 mm 0.00 in0.0 mm
01:10 AM 63.8°F17.7°C 53.4°F11.9°C 69% 1.2 mph SSW1.9 kmh SSW 3.5 mph5.6 kmh 29.76 in1007.8 mb - 0.00 in0.0 mm 0.00 in0.0 mm
01:00 AM 64.2°F17.9°C 53.4°F11.9°C 68% Calm Calm -- 29.77 in1008.1 mb - 0.00 in0.0 mm 0.00 in0.0 mm
12:50 AM 64.5°F18.1°C 52.9°F11.6°C 66% 1.2 mph SSW1.9 kmh SSW 4.6 mph7.4 kmh 29.77 in1008.1 mb - 0.00 in0.0 mm 0.00 in0.0 mm
12:40 AM 64.8°F18.2°C 52.7°F11.5°C 65% 3.5 mph SSE5.6 kmh SSE 9.2 mph14.8 kmh 29.77 in1008.1 mb - 0.00 in0.0 mm 0.00 in0.0 mm
12:30 AM 64.9°F18.3°C 52.4°F11.3°C 64% 2.3 mph S3.7 kmh S 5.8 mph9.3 kmh 29.77 in1008.1 mb - 0.00 in0.0 mm 0.00 in0.0 mm
12:20 AM 64.9°F18.3°C 52.0°F11.1°C 63% 1.2 mph SSE1.9 kmh SSE 4.6 mph7.4 kmh 29.77 in1008.1 mb - 0.00 in0.0 mm 0.00 in0.0 mm
12:10 AM 65.0°F18.3°C 51.7°F10.9°C 62% 2.3 mph SSE3.7 kmh SSE 3.5 mph5.6 kmh 29.77 in1008.1 mb - 0.00 in0.0 mm 0.00 in0.0 mm
12:00 AM 65.0°F18.3°C 51.7°F10.9°C 62% 3.5 mph S5.6 kmh S 6.9 mph11.1 kmh 29.78 in1008.5 mb - 0.00 in0.0 mm 0.00 in0.0 mm